createdAt,value
2022-12-17T00:01:52.122Z,89.20
2022-12-17T00:04:38.190Z,89.20
2022-12-17T00:07:23.428Z,89.10
2022-12-17T00:10:08.887Z,89.10
2022-12-17T00:12:56.498Z,89.10
2022-12-17T00:15:45.309Z,89.10
2022-12-17T00:18:30.805Z,89.30
2022-12-17T00:21:17.914Z,89.10
2022-12-17T00:24:03.981Z,89.00
2022-12-17T00:26:49.881Z,89.00
2022-12-17T00:29:47.395Z,88.90
2022-12-17T00:32:34.172Z,88.90
2022-12-17T00:35:19.979Z,88.90
2022-12-17T00:38:19.883Z,88.90
2022-12-17T00:41:09.216Z,88.80
2022-12-17T00:43:56.372Z,88.80
2022-12-17T00:46:50.416Z,88.90
2022-12-17T00:49:39.513Z,89.00
2022-12-17T00:52:25.008Z,89.10
2022-12-17T00:55:10.812Z,89.10
2022-12-17T00:57:56.240Z,89.10
2022-12-17T01:00:41.826Z,89.10
2022-12-17T01:03:31.820Z,89.10
2022-12-17T01:06:21.802Z,89.30
2022-12-17T01:09:07.432Z,89.30
2022-12-17T01:11:52.841Z,89.60
2022-12-17T01:14:42.415Z,89.50
2022-12-17T01:17:27.958Z,89.40
2022-12-17T01:20:13.477Z,89.40
2022-12-17T01:23:00.359Z,89.20
2022-12-17T01:25:47.529Z,89.20
2022-12-17T01:28:39.343Z,89.10
2022-12-17T01:31:35.027Z,88.80
2022-12-17T01:34:23.649Z,88.90
2022-12-17T01:37:09.077Z,88.80
2022-12-17T01:39:56.171Z,89.00
2022-12-17T01:42:38.240Z,89.00
2022-12-17T01:45:25.418Z,88.80
2022-12-17T01:48:14.576Z,88.80
2022-12-17T01:51:03.312Z,88.80
2022-12-17T01:53:55.262Z,88.90
2022-12-17T01:56:44.023Z,88.50
2022-12-17T01:59:30.427Z,88.70
2022-12-17T02:02:16.509Z,88.50
2022-12-17T02:05:05.053Z,88.50
2022-12-17T02:08:02.782Z,88.50
2022-12-17T02:10:56.590Z,88.60
2022-12-17T02:13:49.444Z,88.30
2022-12-17T02:16:40.510Z,88.30
2022-12-17T02:19:35.795Z,88.60
2022-12-17T02:22:27.790Z,88.70
2022-12-17T02:25:17.749Z,88.70
2022-12-17T02:28:04.625Z,88.60
2022-12-17T02:30:50.493Z,88.70
2022-12-17T02:33:36.930Z,88.70
2022-12-17T02:36:25.212Z,88.70
2022-12-17T02:39:12.653Z,88.50
2022-12-17T02:42:03.599Z,88.50
2022-12-17T02:44:55.929Z,88.50
2022-12-17T02:47:42.914Z,88.50
2022-12-17T02:50:30.278Z,88.50
2022-12-17T02:53:18.307Z,88.60
2022-12-17T02:56:04.023Z,88.60
2022-12-17T02:58:49.232Z,88.50
2022-12-17T03:01:36.209Z,88.50
2022-12-17T03:04:21.509Z,88.50
2022-12-17T03:07:07.258Z,88.40
2022-12-17T03:09:52.682Z,88.30
2022-12-17T03:12:38.334Z,88.20
2022-12-17T03:15:24.321Z,88.30
2022-12-17T03:18:12.761Z,88.20
2022-12-17T03:21:00.388Z,88.30
2022-12-17T03:23:45.547Z,88.40
2022-12-17T03:26:30.961Z,88.50
2022-12-17T03:29:16.299Z,88.50
2022-12-17T03:32:01.911Z,88.50
2022-12-17T03:34:48.302Z,88.40
2022-12-17T03:37:33.825Z,88.40
2022-12-17T03:40:33.722Z,88.30
2022-12-17T03:43:24.820Z,88.20
2022-12-17T03:46:11.362Z,88.10
2022-12-17T03:48:57.074Z,88.00
2022-12-17T03:51:43.886Z,88.00
2022-12-17T03:54:29.407Z,88.00
2022-12-17T03:57:16.426Z,87.70
2022-12-17T04:00:02.046Z,87.90
2022-12-17T04:02:47.510Z,87.90
2022-12-17T04:05:33.222Z,88.00
2022-12-17T04:08:19.911Z,88.10
2022-12-17T04:11:05.413Z,88.20
2022-12-17T04:13:50.987Z,88.10
2022-12-17T04:16:37.077Z,88.00
2022-12-17T04:19:22.409Z,87.90
2022-12-17T04:22:07.972Z,87.90
2022-12-17T04:25:01.870Z,87.80
2022-12-17T04:27:48.575Z,87.80
2022-12-17T04:30:33.975Z,87.70
2022-12-17T04:33:20.241Z,87.80
2022-12-17T04:36:05.469Z,87.80
2022-12-17T04:38:51.044Z,87.80
2022-12-17T04:41:38.122Z,87.70
2022-12-17T04:44:23.329Z,87.80
2022-12-17T04:47:09.030Z,87.80
2022-12-17T04:49:55.802Z,87.80
2022-12-17T04:52:41.106Z,87.80
2022-12-17T04:55:27.065Z,87.90
2022-12-17T04:58:14.171Z,87.90
2022-12-17T05:00:59.389Z,87.90
2022-12-17T05:03:44.902Z,87.70
2022-12-17T05:06:30.413Z,87.60
2022-12-17T05:09:15.993Z,87.70
2022-12-17T05:12:01.386Z,87.70
2022-12-17T05:14:47.899Z,87.60
2022-12-17T05:17:33.497Z,87.60
2022-12-17T05:20:18.926Z,87.70
2022-12-17T05:23:06.755Z,87.70
2022-12-17T05:25:54.258Z,87.70
2022-12-17T05:28:39.692Z,88.30
2022-12-17T05:31:39.168Z,87.60
2022-12-17T05:34:24.770Z,87.60
2022-12-17T05:37:10.183Z,87.60
2022-12-17T05:39:56.043Z,87.60
2022-12-17T05:42:41.417Z,87.60
2022-12-17T05:45:38.237Z,87.80
2022-12-17T05:48:39.562Z,87.50
2022-12-17T05:51:27.925Z,87.40
2022-12-17T05:54:19.528Z,87.50
2022-12-17T05:57:15.503Z,87.50
2022-12-17T06:00:00.965Z,87.30
2022-12-17T06:02:50.056Z,87.30
2022-12-17T06:05:41.163Z,87.40
2022-12-17T06:08:27.770Z,87.40
2022-12-17T06:11:16.228Z,87.50
2022-12-17T06:14:01.875Z,87.40
2022-12-17T06:16:49.116Z,87.40
2022-12-17T06:19:34.593Z,87.30
2022-12-17T06:22:30.865Z,87.40
2022-12-17T06:25:19.223Z,87.60
2022-12-17T06:28:04.845Z,87.60
2022-12-17T06:30:51.198Z,87.60
2022-12-17T06:33:39.244Z,87.50
2022-12-17T06:36:30.719Z,87.60
2022-12-17T06:39:20.063Z,87.70
2022-12-17T06:42:12.080Z,87.60
2022-12-17T06:44:58.490Z,87.60
2022-12-17T06:47:45.357Z,87.50
2022-12-17T06:50:30.832Z,87.40
2022-12-17T06:53:21.970Z,87.40
2022-12-17T06:56:08.711Z,87.40
2022-12-17T06:58:54.305Z,87.30
2022-12-17T07:01:40.113Z,87.20
2022-12-17T07:04:25.492Z,87.30
2022-12-17T07:07:10.896Z,87.20
2022-12-17T07:09:57.239Z,87.20
2022-12-17T07:12:44.471Z,87.10
2022-12-17T07:15:30.702Z,87.10
2022-12-17T07:18:17.391Z,87.20
2022-12-17T07:21:03.241Z,87.20
2022-12-17T07:23:48.778Z,87.10
2022-12-17T07:26:34.128Z,87.20
2022-12-17T07:29:23.156Z,87.20
2022-12-17T07:32:08.829Z,87.30
2022-12-17T07:34:54.057Z,87.30
2022-12-17T07:37:40.206Z,87.40
2022-12-17T07:40:27.344Z,87.40
2022-12-17T07:43:12.622Z,87.50
2022-12-17T07:45:59.655Z,87.50
2022-12-17T07:48:44.829Z,87.40
2022-12-17T07:51:30.508Z,87.30
2022-12-17T07:54:15.882Z,87.30
2022-12-17T07:57:01.045Z,87.40
2022-12-17T07:59:46.524Z,87.50
2022-12-17T08:02:33.397Z,87.60
2022-12-17T08:05:19.208Z,87.60
2022-12-17T08:08:04.596Z,87.60
2022-12-17T08:10:49.890Z,87.60
2022-12-17T08:13:35.692Z,87.70
2022-12-17T08:16:21.396Z,87.60
2022-12-17T08:19:07.940Z,87.50
2022-12-17T08:21:53.511Z,87.60
2022-12-17T08:24:39.077Z,87.60
2022-12-17T08:27:24.570Z,87.70
2022-12-17T08:30:09.718Z,87.80
2022-12-17T08:32:55.225Z,87.80
2022-12-17T08:35:42.181Z,87.90
2022-12-17T08:38:27.618Z,87.90
2022-12-17T08:41:13.128Z,87.90
2022-12-17T08:43:58.697Z,87.90
2022-12-17T08:46:44.398Z,88.00
2022-12-17T08:49:29.867Z,88.00
2022-12-17T08:52:18.822Z,88.10
2022-12-17T08:55:04.498Z,88.20
2022-12-17T08:57:52.068Z,88.20
2022-12-17T09:00:37.593Z,88.30
2022-12-17T09:03:23.252Z,88.40
2022-12-17T09:06:11.207Z,88.40
2022-12-17T09:08:58.102Z,88.70
2022-12-17T09:11:43.683Z,88.90
2022-12-17T09:14:29.111Z,88.90
2022-12-17T09:17:14.732Z,88.90
2022-12-17T09:20:00.203Z,89.00
2022-12-17T09:22:45.660Z,89.10
2022-12-17T09:25:32.266Z,89.20
2022-12-17T09:28:19.528Z,89.20
2022-12-17T09:31:05.073Z,89.30
2022-12-17T09:33:50.802Z,89.30
2022-12-17T09:36:38.476Z,89.50
2022-12-17T09:39:24.359Z,89.60
2022-12-17T09:42:25.669Z,90.00
2022-12-17T09:45:16.688Z,90.00
2022-12-17T09:48:11.183Z,90.00
2022-12-17T09:50:56.836Z,90.00
2022-12-17T09:53:55.640Z,90.10
2022-12-17T09:56:44.405Z,90.00
2022-12-17T09:59:38.121Z,90.10
2022-12-17T10:02:31.771Z,90.10
2022-12-17T10:05:19.803Z,90.20
2022-12-17T10:08:06.014Z,90.20
2022-12-17T10:10:51.998Z,90.20
2022-12-17T10:13:40.052Z,90.20
2022-12-17T10:16:46.880Z,90.30
2022-12-17T10:19:34.597Z,90.40
2022-12-17T10:22:28.132Z,90.40
2022-12-17T10:25:13.666Z,90.40
2022-12-17T10:27:59.140Z,90.40
2022-12-17T10:30:45.757Z,90.50
2022-12-17T10:33:37.563Z,90.50
2022-12-17T10:36:26.645Z,90.60
2022-12-17T10:39:13.583Z,90.50
2022-12-17T10:42:00.976Z,90.60
2022-12-17T10:44:50.258Z,90.60
2022-12-17T10:47:37.211Z,90.60
2022-12-17T10:50:28.331Z,90.70
2022-12-17T10:53:13.920Z,90.70
2022-12-17T10:56:08.267Z,90.70
2022-12-17T10:58:55.303Z,90.70
2022-12-17T11:01:43.061Z,90.70
2022-12-17T11:04:44.081Z,90.70
2022-12-17T11:07:35.197Z,90.70
2022-12-17T11:10:23.685Z,90.80
2022-12-17T11:13:13.092Z,90.80
2022-12-17T11:16:02.356Z,90.80
2022-12-17T11:18:54.558Z,90.90
2022-12-17T11:21:45.066Z,91.20
2022-12-17T11:24:40.993Z,90.90
2022-12-17T11:27:28.183Z,90.90
2022-12-17T11:30:13.739Z,91.00
2022-12-17T11:33:10.127Z,91.00
2022-12-17T11:36:04.780Z,91.00
2022-12-17T11:38:57.141Z,91.10
2022-12-17T11:42:11.225Z,91.10
2022-12-17T11:45:07.846Z,91.10
2022-12-17T11:48:11.336Z,91.10
2022-12-17T11:51:02.868Z,91.10
2022-12-17T11:54:05.565Z,91.10
2022-12-17T11:56:58.582Z,91.10
2022-12-17T11:59:52.914Z,91.10
2022-12-17T12:03:03.248Z,91.10
2022-12-17T12:06:00.139Z,91.20
2022-12-17T12:08:47.832Z,91.20
2022-12-17T12:11:44.633Z,91.10
2022-12-17T12:14:44.422Z,91.00
2022-12-17T12:17:48.682Z,91.10
2022-12-17T12:20:50.266Z,91.10
2022-12-17T12:23:48.080Z,91.10
2022-12-17T12:26:38.570Z,91.10
2022-12-17T12:29:36.207Z,91.10
2022-12-17T12:32:32.685Z,91.20
2022-12-17T12:35:20.363Z,91.20
2022-12-17T12:38:06.232Z,91.20
2022-12-17T12:40:57.638Z,91.10
2022-12-17T12:43:48.294Z,91.10
2022-12-17T12:46:37.791Z,91.10
2022-12-17T12:49:35.198Z,91.10
2022-12-17T12:52:21.105Z,91.10
2022-12-17T12:55:11.676Z,91.10
2022-12-17T12:57:59.660Z,91.20
2022-12-17T13:00:53.841Z,91.20
2022-12-17T13:03:45.332Z,91.10
2022-12-17T13:06:35.283Z,91.10
2022-12-17T13:09:06.751Z,91.10
2022-12-17T13:11:39.386Z,91.10
2022-12-17T13:14:14.578Z,91.10
2022-12-17T13:16:52.715Z,91.10
2022-12-17T13:19:39.516Z,91.10
2022-12-17T13:22:29.378Z,91.00
2022-12-17T13:25:10.261Z,91.00
2022-12-17T13:27:41.703Z,91.00
2022-12-17T13:30:21.617Z,91.00
2022-12-17T13:32:55.622Z,91.10
2022-12-17T13:35:30.621Z,91.10
2022-12-17T13:38:04.929Z,91.00
2022-12-17T13:40:44.544Z,90.90
2022-12-17T13:43:18.731Z,90.90
2022-12-17T13:45:47.003Z,90.80
2022-12-17T13:48:22.535Z,90.80
2022-12-17T13:50:59.595Z,90.80
2022-12-17T13:53:30.379Z,90.80
2022-12-17T13:55:59.166Z,90.70
2022-12-17T13:58:29.038Z,90.70
2022-12-17T14:01:07.513Z,90.70
2022-12-17T14:04:05.185Z,90.70
2022-12-17T14:06:27.465Z,90.70
2022-12-17T14:08:58.004Z,90.60
2022-12-17T14:11:44.032Z,90.60
2022-12-17T14:14:33.697Z,90.60
2022-12-17T14:17:01.995Z,90.60
2022-12-17T14:19:33.057Z,90.60
2022-12-17T14:22:02.299Z,90.60
2022-12-17T14:24:31.636Z,90.60
2022-12-17T14:27:00.658Z,90.60
2022-12-17T14:29:29.922Z,90.50
2022-12-17T14:32:00.326Z,90.50
2022-12-17T14:34:28.237Z,90.50
2022-12-17T14:36:58.553Z,90.50
2022-12-17T14:39:28.673Z,90.50
2022-12-17T14:42:25.392Z,90.40
2022-12-17T14:44:55.272Z,90.40
2022-12-17T14:47:25.949Z,90.40
2022-12-17T14:49:58.672Z,90.40
2022-12-17T14:52:34.122Z,90.30
2022-12-17T14:55:02.167Z,90.60
2022-12-17T14:57:31.249Z,90.20
2022-12-17T14:59:59.014Z,90.10
2022-12-17T15:02:30.915Z,90.20
2022-12-17T15:05:02.315Z,90.10
2022-12-17T15:07:32.473Z,90.00
2022-12-17T15:10:00.256Z,90.10
2022-12-17T15:12:29.034Z,90.10
2022-12-17T15:14:58.192Z,90.10
2022-12-17T15:17:26.089Z,90.10
2022-12-17T15:19:56.171Z,90.10
2022-12-17T15:22:24.543Z,90.00
2022-12-17T15:24:52.361Z,90.10
2022-12-17T15:27:20.189Z,90.20
2022-12-17T15:29:48.042Z,90.20
2022-12-17T15:32:19.699Z,90.20
2022-12-17T15:34:47.468Z,90.10
2022-12-17T15:37:20.989Z,90.00
2022-12-17T15:39:51.085Z,90.10
2022-12-17T15:42:35.643Z,90.00
2022-12-17T15:45:03.384Z,90.10
2022-12-17T15:47:32.438Z,90.20
2022-12-17T15:50:00.179Z,90.10
2022-12-17T15:52:28.223Z,90.00
2022-12-17T15:54:55.952Z,90.00
2022-12-17T15:57:23.673Z,90.00
2022-12-17T15:59:52.073Z,90.00
2022-12-17T16:02:19.950Z,90.00
2022-12-17T16:04:49.161Z,90.00
2022-12-17T16:07:17.207Z,90.00
2022-12-17T16:09:44.964Z,90.00
2022-12-17T16:12:12.662Z,89.90
2022-12-17T16:14:40.363Z,89.90
2022-12-17T16:17:08.147Z,89.80
2022-12-17T16:19:35.930Z,90.20
2022-12-17T16:22:05.084Z,89.90
2022-12-17T16:24:32.797Z,89.80
2022-12-17T16:27:04.339Z,89.70
2022-12-17T16:29:32.635Z,89.70
2022-12-17T16:32:00.666Z,89.80
2022-12-17T16:34:28.947Z,89.70
2022-12-17T16:36:56.723Z,89.80
2022-12-17T16:39:25.799Z,89.80
2022-12-17T16:41:53.589Z,89.80
2022-12-17T16:44:21.584Z,89.60
2022-12-17T16:46:49.357Z,89.60
2022-12-17T16:49:19.272Z,90.10
2022-12-17T16:51:49.479Z,89.70
2022-12-17T16:54:18.983Z,89.80
2022-12-17T16:56:49.011Z,89.80
2022-12-17T16:59:17.900Z,89.80
2022-12-17T17:01:47.934Z,89.80
2022-12-17T17:04:17.367Z,89.80
2022-12-17T17:06:48.710Z,90.00
2022-12-17T17:09:17.484Z,90.00
2022-12-17T17:11:50.950Z,89.80
2022-12-17T17:14:21.039Z,89.80
2022-12-17T17:16:48.859Z,89.60
2022-12-17T17:19:18.397Z,89.70
2022-12-17T17:21:51.708Z,89.80
2022-12-17T17:24:22.448Z,89.90
2022-12-17T17:26:51.684Z,89.80
2022-12-17T17:29:21.002Z,89.70
2022-12-17T17:34:36.623Z,89.70
2022-12-17T17:37:04.492Z,89.60
2022-12-17T17:39:33.217Z,89.60
2022-12-17T17:42:01.908Z,89.60
2022-12-17T17:44:30.973Z,89.50
2022-12-17T17:46:59.003Z,89.40
2022-12-17T17:49:26.763Z,89.60
2022-12-17T17:52:10.901Z,89.40
2022-12-17T17:54:40.427Z,89.40
2022-12-17T17:57:09.372Z,89.50
2022-12-17T17:59:39.421Z,89.50
2022-12-17T18:02:08.781Z,89.70
2022-12-17T18:04:37.196Z,89.50
2022-12-17T18:09:52.692Z,89.60
2022-12-17T18:12:37.984Z,89.60
2022-12-17T18:15:17.355Z,89.40
2022-12-17T18:17:47.036Z,89.40
2022-12-17T18:20:15.000Z,89.30
2022-12-17T18:22:43.233Z,89.30
2022-12-17T18:25:11.331Z,89.30
2022-12-17T18:27:39.307Z,89.40
2022-12-17T18:30:09.582Z,89.40
2022-12-17T18:32:37.301Z,89.40
2022-12-17T18:35:05.499Z,89.40
2022-12-17T18:37:33.208Z,89.40
2022-12-17T18:40:03.331Z,89.30
2022-12-17T18:42:48.784Z,89.40
2022-12-17T18:45:18.185Z,89.30
2022-12-17T18:47:45.965Z,89.20
2022-12-17T18:50:13.808Z,89.20
2022-12-17T18:52:41.982Z,89.20
2022-12-17T18:55:11.132Z,89.30
2022-12-17T18:57:38.867Z,89.20
2022-12-17T19:00:07.892Z,89.30
2022-12-17T19:02:37.220Z,89.30
2022-12-17T19:05:05.675Z,89.20
2022-12-17T19:07:33.637Z,89.10
2022-12-17T19:10:01.468Z,89.00
2022-12-17T19:12:29.468Z,88.90
2022-12-17T19:14:57.175Z,88.90
2022-12-17T19:17:26.351Z,89.00
2022-12-17T19:19:55.503Z,88.90
2022-12-17T19:22:23.517Z,88.80
2022-12-17T19:24:51.269Z,88.70
2022-12-17T19:27:19.033Z,88.50
2022-12-17T19:29:49.624Z,88.50
2022-12-17T19:32:17.882Z,88.50
2022-12-17T19:34:45.715Z,88.50
2022-12-17T19:37:14.754Z,88.60
2022-12-17T19:39:42.579Z,88.70
2022-12-17T19:42:24.592Z,88.80
2022-12-17T19:44:53.597Z,88.80
2022-12-17T19:47:21.739Z,89.00
2022-12-17T19:49:49.899Z,89.00
2022-12-17T19:52:19.061Z,89.00
2022-12-17T19:54:46.792Z,89.10
2022-12-17T19:57:14.564Z,88.90
2022-12-17T19:59:42.284Z,88.90
2022-12-17T20:02:12.090Z,88.80
2022-12-17T20:04:39.929Z,88.90
2022-12-17T20:07:07.890Z,88.80
2022-12-17T20:09:37.186Z,88.90
2022-12-17T20:12:05.324Z,88.90
2022-12-17T20:14:34.275Z,88.80
2022-12-17T20:17:04.929Z,88.90
2022-12-17T20:19:35.065Z,88.80
2022-12-17T20:22:05.264Z,88.80
2022-12-17T20:24:33.020Z,88.80
2022-12-17T20:27:02.385Z,88.70
2022-12-17T20:29:30.916Z,88.70
2022-12-17T20:32:11.063Z,88.60
2022-12-17T20:34:38.838Z,88.60
2022-12-17T20:37:06.754Z,88.60
2022-12-17T20:39:34.523Z,88.60
2022-12-17T20:42:03.639Z,88.50
2022-12-17T20:44:31.363Z,88.50
2022-12-17T20:46:59.071Z,88.50
2022-12-17T20:49:29.863Z,88.40
2022-12-17T20:51:57.636Z,88.40
2022-12-17T20:54:25.440Z,88.30
2022-12-17T20:56:53.305Z,88.40
2022-12-17T20:59:22.727Z,88.30
2022-12-17T21:01:55.904Z,88.30
2022-12-17T21:04:24.042Z,88.60
2022-12-17T21:06:52.915Z,88.60
2022-12-17T21:09:22.376Z,88.70
2022-12-17T21:11:50.147Z,88.70
2022-12-17T21:14:19.651Z,88.70
2022-12-17T21:16:49.310Z,88.70
2022-12-17T21:19:18.934Z,88.60
2022-12-17T21:21:46.803Z,88.60
2022-12-17T21:24:14.575Z,88.50
2022-12-17T21:26:44.776Z,88.50
2022-12-17T21:29:12.959Z,88.50
2022-12-17T21:31:42.737Z,88.40
2022-12-17T21:34:15.312Z,88.40
2022-12-17T21:36:43.320Z,88.50
2022-12-17T21:39:13.750Z,88.40
2022-12-17T21:41:45.031Z,88.30
2022-12-17T21:44:15.332Z,88.30
2022-12-17T21:46:43.550Z,88.40
2022-12-17T21:49:15.369Z,88.20
2022-12-17T21:51:43.279Z,88.40
2022-12-17T21:54:15.670Z,88.50
2022-12-17T21:56:46.880Z,88.40
2022-12-17T21:59:14.619Z,88.40
2022-12-17T22:01:42.707Z,88.50
2022-12-17T22:04:10.603Z,88.40
2022-12-17T22:06:42.294Z,88.30
2022-12-17T22:09:26.821Z,88.40
2022-12-17T22:12:23.603Z,88.40
2022-12-17T22:14:51.400Z,88.30
2022-12-17T22:17:19.067Z,88.40
2022-12-17T22:19:46.775Z,88.30
2022-12-17T22:22:15.865Z,88.30
2022-12-17T22:24:43.615Z,88.30
2022-12-17T22:27:11.462Z,88.40
2022-12-17T22:29:56.695Z,88.30
2022-12-17T22:32:42.162Z,88.40
2022-12-17T22:36:16.667Z,88.40
2022-12-17T22:40:18.287Z,88.30
2022-12-17T22:44:34.587Z,88.10
2022-12-17T22:44:49.040Z,88.30
2022-12-17T22:46:22.700Z,88.40
2022-12-17T22:48:50.470Z,88.40
2022-12-17T22:51:30.117Z,88.30
2022-12-17T22:54:08.219Z,88.40
2022-12-17T22:57:01.492Z,88.40
2022-12-17T22:59:24.780Z,88.30
2022-12-17T23:01:52.569Z,88.30
2022-12-17T23:04:20.372Z,88.20
2022-12-17T23:06:48.167Z,88.30
2022-12-17T23:09:20.233Z,88.40
2022-12-17T23:11:49.230Z,88.60
2022-12-17T23:14:17.432Z,88.60
2022-12-17T23:16:45.697Z,88.70
2022-12-17T23:19:13.956Z,88.60
2022-12-17T23:21:41.747Z,88.60
2022-12-17T23:24:09.965Z,88.50
2022-12-17T23:26:39.837Z,88.30
2022-12-17T23:29:14.869Z,88.20
2022-12-17T23:31:45.358Z,88.20
2022-12-17T23:34:13.100Z,88.10
2022-12-17T23:36:40.840Z,88.10
2022-12-17T23:39:08.649Z,88.20
2022-12-17T23:41:36.373Z,88.30
2022-12-17T23:44:05.552Z,88.20
2022-12-17T23:46:33.289Z,88.20
2022-12-17T23:49:01.085Z,88.10
2022-12-17T23:51:29.223Z,88.20
2022-12-17T23:53:56.956Z,88.10
2022-12-17T23:56:27.130Z,88.00
2022-12-17T23:58:56.913Z,87.90
